Time;durP1;ratioP1;P1;durP2;ratioP2;P2;SDS_P1;SDS_P2;PMS_P1;PMS_P2;Temp;Humidity;BMP_temperature;BMP_pressure;BME280_temperature;BME280_humidity;BME280_pressure;Samples;Min_cycle;Max_cycle;Signal;HPM_P1;HPM_P2
2021/12/24 00:01:24;;;;;;;181.85;54.88;;;;;;;3.84;87.96;99624.88;5050141;28;20095;-67
2021/12/24 00:03:51;;;;;;;191.18;54.00;;;;;;;4.09;87.03;99616.91;5052311;28;20122;-67
2021/12/24 00:06:17;;;;;;;215.35;59.45;;;;;;;4.18;86.29;99615.66;5050034;28;20091;-67
2021/12/24 00:08:46;;;;;;;210.15;57.05;;;;;;;4.47;85.44;99610.06;5049730;28;20049;-67
2021/12/24 00:11:13;;;;;;;220.15;55.58;;;;;;;4.40;86.24;99609.47;5050425;28;20072;-67
2021/12/24 00:13:43;;;;;;;187.65;53.40;;;;;;;4.33;87.14;99608.06;5048453;28;20048;-67
2021/12/24 00:16:18;;;;;;;190.35;53.85;;;;;;;4.55;87.17;99607.09;5050181;28;20049;-67
2021/12/24 00:18:50;;;;;;;165.23;49.40;;;;;;;4.45;87.26;99598.88;5036497;28;20050;-67
2021/12/24 00:35:14;;;;;;;77.63;30.17;;;;;;;5.55;88.63;99577.16;5051375;28;20412;-67
2021/12/24 00:37:44;;;;;;;69.93;25.00;;;;;;;5.69;88.07;99572.13;5048821;28;20045;-67
2021/12/24 00:40:17;;;;;;;63.15;23.40;;;;;;;5.80;88.33;99576.81;5048870;28;20067;-68
2021/12/24 00:42:46;;;;;;;56.17;23.02;;;;;;;5.91;87.67;99573.69;5041825;28;20125;-67
2021/12/24 00:45:14;;;;;;;58.85;22.65;;;;;;;6.06;87.08;99572.91;5046849;28;20103;-67
2021/12/24 00:47:41;;;;;;;48.38;21.95;;;;;;;5.91;87.52;99560.69;5044455;28;20579;-67
2021/12/24 00:50:13;;;;;;;47.50;21.52;;;;;;;5.96;87.96;99556.91;5044597;28;20053;-67
2021/12/24 00:52:48;;;;;;;43.10;19.17;;;;;;;6.03;87.31;99557.44;5049261;28;20073;-67
2021/12/24 00:55:16;;;;;;;40.17;17.60;;;;;;;6.01;87.78;99561.88;5048448;28;20045;-67
2021/12/24 00:57:46;;;;;;;40.35;18.70;;;;;;;6.16;86.92;99558.50;5041705;28;20049;-67
2021/12/24 01:00:16;;;;;;;36.80;14.93;;;;;;;6.23;86.45;99560.69;5044854;28;20099;-68
2021/12/24 01:02:44;;;;;;;28.70;13.73;;;;;;;6.17;86.60;99555.78;5038918;28;20072;-68
2021/12/24 01:05:13;;;;;;;35.03;16.15;;;;;;;6.15;86.90;99551.59;5052611;28;20366;-67
2021/12/24 01:07:40;;;;;;;37.85;15.48;;;;;;;6.21;86.68;99543.44;5047773;28;20052;-68
2021/12/24 01:10:09;;;;;;;35.20;14.95;;;;;;;6.33;85.97;99545.41;5048756;28;20497;-68
2021/12/24 01:12:36;;;;;;;32.20;15.55;;;;;;;6.25;86.74;99558.84;5047953;28;20037;-68
2021/12/24 01:15:05;;;;;;;29.88;13.15;;;;;;;6.06;87.17;99544.28;5046167;28;20053;-68
2021/12/24 01:17:38;;;;;;;26.60;12.88;;;;;;;6.24;87.23;99548.53;5048268;28;20056;-67
2021/12/24 01:20:14;;;;;;;28.08;13.57;;;;;;;6.25;86.58;99534.56;5047627;28;20053;-67
2021/12/24 01:23:23;;;;;;;26.25;12.95;;;;;;;6.23;86.55;99539.88;5048763;28;20041;-67
2021/12/24 01:25:47;;;;;;;26.17;12.57;;;;;;;6.29;86.27;99536.94;5047524;28;20044;-67
2021/12/24 01:39:19;;;;;;;23.92;13.25;;;;;;;6.33;86.04;99529.78;5043767;28;20053;-67
2021/12/24 01:44:30;;;;;;;24.65;11.93;;;;;;;6.15;86.80;99528.16;5043627;28;20455;-67
2021/12/24 01:46:58;;;;;;;21.63;11.27;;;;;;;6.35;85.94;99525.34;5048004;28;20053;-67
2021/12/24 01:49:25;;;;;;;22.17;10.55;;;;;;;6.39;85.86;99534.69;5047667;28;20147;-67
2021/12/24 01:51:52;;;;;;;19.83;10.93;;;;;;;6.32;85.78;99525.50;5047493;28;20080;-67
2021/12/24 01:54:20;;;;;;;19.63;10.38;;;;;;;6.35;85.99;99518.41;5038742;28;20075;-67
2021/12/24 01:56:47;;;;;;;19.58;10.07;;;;;;;6.29;85.63;99518.69;5047996;28;20115;-67
2021/12/24 01:59:14;;;;;;;22.67;11.65;;;;;;;6.33;85.83;99520.22;5034358;28;20123;-67
2021/12/24 02:01:41;;;;;;;18.67;9.95;;;;;;;6.21;86.58;99525.22;5047774;28;20098;-67
2021/12/24 02:04:11;;;;;;;15.75;9.27;;;;;;;6.27;86.48;99525.78;5040720;28;20494;-67
2021/12/24 02:06:38;;;;;;;18.80;10.98;;;;;;;6.38;85.84;99517.38;5037289;28;20049;-68
2021/12/24 02:09:04;;;;;;;19.83;10.82;;;;;;;6.44;85.24;99517.03;5031076;28;20053;-67
2021/12/24 02:11:37;;;;;;;22.75;10.13;;;;;;;6.58;85.10;99519.72;5028862;28;20053;-67
2021/12/24 02:14:04;;;;;;;19.98;10.82;;;;;;;6.51;85.34;99515.78;5039367;28;20544;-67
2021/12/24 02:16:43;;;;;;;17.63;10.20;;;;;;;6.45;86.11;99507.47;5047820;28;20067;-67
2021/12/24 02:30:07;;;;;;;16.30;9.48;;;;;;;6.32;86.94;99502.06;5038110;28;20084;-67
2021/12/24 02:32:34;;;;;;;18.40;9.82;;;;;;;6.62;85.58;99502.16;5041125;28;20099;-67
2021/12/24 02:35:00;;;;;;;19.48;9.20;;;;;;;6.40;86.18;99512.06;5051285;28;20057;-67
2021/12/24 02:37:28;;;;;;;18.92;10.02;;;;;;;6.54;86.22;99491.34;5045222;28;20057;-67
2021/12/24 02:39:55;;;;;;;17.25;9.30;;;;;;;6.53;86.25;99502.69;5028439;28;20046;-67
2021/12/24 02:42:23;;;;;;;18.75;10.25;;;;;;;6.56;86.06;99489.50;5028393;28;20521;-67
2021/12/24 02:44:51;;;;;;;15.15;9.00;;;;;;;6.54;86.40;99492.16;5045378;28;20044;-67
2021/12/24 02:47:39;;;;;;;15.48;9.65;;;;;;;6.49;86.62;99499.41;5046882;28;20056;-67
2021/12/24 02:55:35;;;;;;;20.73;10.52;;;;;;;6.49;87.07;99501.16;5031698;28;20537;-67
2021/12/24 02:58:02;;;;;;;16.60;10.18;;;;;;;6.64;86.41;99503.78;5050535;28;20069;-67
2021/12/24 03:00:29;;;;;;;18.70;10.93;;;;;;;6.67;86.81;99505.38;5050934;28;20056;-67
2021/12/24 03:02:56;;;;;;;17.65;9.82;;;;;;;6.85;85.96;99506.94;5051863;28;20055;-67
2021/12/24 03:05:25;;;;;;;16.65;9.45;;;;;;;6.52;86.93;99494.03;5050661;28;20045;-67
2021/12/24 03:07:53;;;;;;;19.30;10.55;;;;;;;6.55;87.35;99487.81;5044847;28;20049;-67
2021/12/24 03:10:22;;;;;;;19.08;10.43;;;;;;;6.76;86.38;99487.44;5031527;28;20061;-67
2021/12/24 03:12:51;;;;;;;21.17;10.48;;;;;;;6.68;87.53;99494.03;5034746;28;20044;-67
2021/12/24 03:15:19;;;;;;;21.02;9.93;;;;;;;6.70;86.89;99493.00;5047962;28;20049;-67
2021/12/24 03:17:50;;;;;;;19.83;8.63;;;;;;;6.72;86.86;99485.13;5049998;28;20430;-67
2021/12/24 03:20:16;;;;;;;17.25;9.32;;;;;;;6.76;86.73;99482.25;5031332;28;20060;-67
2021/12/24 03:22:49;;;;;;;16.00;8.55;;;;;;;6.66;86.63;99488.91;5033279;28;20049;-67
2021/12/24 03:25:17;;;;;;;14.95;7.40;;;;;;;6.63;86.87;99472.59;5048912;28;20056;-67
2021/12/24 03:27:44;;;;;;;14.75;8.30;;;;;;;6.49;88.04;99477.72;5050849;28;20122;-67
2021/12/24 03:30:12;;;;;;;9.70;6.78;;;;;;;6.60;87.59;99478.81;5044774;28;20065;-67
2021/12/24 03:32:38;;;;;;;14.23;6.78;;;;;;;6.43;88.24;99468.47;5048516;28;20079;-67
2021/12/24 03:35:05;;;;;;;10.55;6.93;;;;;;;6.61;87.63;99477.91;5054187;28;20069;-67
2021/12/24 03:37:31;;;;;;;10.98;7.05;;;;;;;6.74;87.15;99472.84;5050256;28;20045;-67
2021/12/24 03:39:58;;;;;;;11.07;6.38;;;;;;;6.70;87.88;99477.38;5050676;28;20133;-67
2021/12/24 03:42:25;;;;;;;9.90;6.25;;;;;;;6.62;88.03;99469.16;5050287;28;20068;-67
2021/12/24 03:44:58;;;;;;;8.45;5.50;;;;;;;6.49;88.85;99459.50;5050519;28;20045;-67
2021/12/24 03:47:26;;;;;;;7.95;5.70;;;;;;;6.73;87.84;99458.97;5049873;28;20766;-66
2021/12/24 03:49:58;;;;;;;8.32;5.72;;;;;;;6.87;87.39;99453.00;5050313;28;20044;-66
2021/12/24 03:52:49;;;;;;;8.35;5.60;;;;;;;6.92;86.82;99455.31;5049153;28;20044;-67
2021/12/24 03:55:14;;;;;;;6.30;4.30;;;;;;;6.82;87.40;99444.59;5050040;28;20049;-67
2021/12/24 03:57:42;;;;;;;7.65;5.22;;;;;;;6.63;88.72;99444.78;5048262;28;20048;-67
2021/12/24 04:00:13;;;;;;;7.30;5.45;;;;;;;6.78;87.94;99454.34;5049748;28;20072;-67
2021/12/24 04:02:39;;;;;;;9.10;5.43;;;;;;;6.75;88.63;99449.31;5042185;28;20481;-67
2021/12/24 04:05:07;;;;;;;9.90;5.90;;;;;;;6.89;88.04;99442.47;5049851;28;20076;-67
2021/12/24 04:07:33;;;;;;;8.82;6.40;;;;;;;7.18;86.48;99446.84;5049780;28;20118;-67
2021/12/24 04:10:03;;;;;;;7.90;5.50;;;;;;;7.26;85.59;99439.41;5050417;28;20458;-67
2021/12/24 04:12:29;;;;;;;8.15;5.13;;;;;;;7.06;86.70;99447.59;5044317;28;20075;-67
2021/12/24 04:14:57;;;;;;;6.57;4.78;;;;;;;6.84;87.76;99438.38;5046223;28;20091;-67
2021/12/24 04:17:24;;;;;;;8.35;5.82;;;;;;;6.98;87.65;99428.94;5044184;28;20488;-67
2021/12/24 04:25:15;;;;;;;7.40;4.90;;;;;;;7.35;85.48;99433.69;5024093;28;20041;-67
2021/12/24 04:27:41;;;;;;;6.28;4.68;;;;;;;7.18;85.84;99419.00;5046154;28;20048;-67
2021/12/24 04:30:15;;;;;;;8.15;4.97;;;;;;;7.03;87.11;99432.94;5046629;28;20646;-67
2021/12/24 04:32:55;;;;;;;8.43;5.53;;;;;;;7.10;87.13;99436.03;5045178;28;20045;-67
2021/12/24 04:35:37;;;;;;;6.73;4.80;;;;;;;7.06;87.22;99437.16;5045805;28;20063;-67
2021/12/24 04:38:23;;;;;;;5.55;4.43;;;;;;;7.05;87.53;99435.47;5040312;28;20060;-67
2021/12/24 04:51:54;;;;;;;5.82;4.85;;;;;;;6.94;88.63;99423.06;5046920;28;20121;-67
2021/12/24 05:02:48;;;;;;;6.72;4.85;;;;;;;7.31;87.10;99419.16;5045773;28;20086;-67
2021/12/24 05:05:22;;;;;;;6.63;4.93;;;;;;;7.22;87.67;99427.50;5047280;28;20049;-66
2021/12/24 05:08:09;;;;;;;6.32;4.65;;;;;;;7.15;87.75;99420.97;5026493;28;20490;-66
2021/12/24 05:10:38;;;;;;;6.43;4.70;;;;;;;7.34;87.49;99426.78;5027021;28;20136;-66
2021/12/24 05:13:06;;;;;;;5.95;4.60;;;;;;;7.14;88.16;99422.72;5037883;28;20139;-66
2021/12/24 05:15:35;;;;;;;7.10;4.68;;;;;;;7.19;88.06;99432.88;5046454;28;20048;-66
2021/12/24 05:18:27;;;;;;;5.05;4.03;;;;;;;7.31;87.58;99426.97;5036191;28;20080;-66
2021/12/24 05:23:37;;;;;;;6.43;4.70;;;;;;;7.30;87.47;99427.88;5046586;28;20056;-66
2021/12/24 05:26:03;;;;;;;6.57;4.88;;;;;;;7.37;87.38;99415.31;5045773;28;20048;-66
2021/12/24 05:28:30;;;;;;;7.32;5.32;;;;;;;7.42;87.21;99414.13;5045021;28;20053;-66
2021/12/24 05:30:56;;;;;;;8.35;5.40;;;;;;;7.46;87.17;99404.34;5047855;28;20067;-66
2021/12/24 05:33:24;;;;;;;7.82;4.93;;;;;;;7.40;87.57;99410.75;5046082;28;20071;-66
2021/12/24 05:35:50;;;;;;;7.45;5.57;;;;;;;7.45;87.54;99408.72;5046299;28;20052;-67
2021/12/24 05:38:17;;;;;;;8.05;5.07;;;;;;;7.53;87.20;99403.06;5042151;28;20061;-67
2021/12/24 05:40:45;;;;;;;6.97;4.72;;;;;;;7.40;87.36;99400.31;5030409;28;20142;-67
2021/12/24 05:43:12;;;;;;;9.35;5.57;;;;;;;7.46;87.12;99404.34;5045964;28;20048;-67
2021/12/24 05:45:39;;;;;;;9.55;5.85;;;;;;;7.49;87.23;99396.34;5045283;28;20149;-67
2021/12/24 05:48:06;;;;;;;7.50;5.93;;;;;;;7.63;86.85;99407.63;5038310;28;20131;-67
2021/12/24 05:50:33;;;;;;;9.52;6.47;;;;;;;7.67;86.53;99393.44;5031857;28;20122;-67
2021/12/24 05:53:00;;;;;;;8.85;6.72;;;;;;;7.69;86.67;99403.78;5038767;28;20085;-67
2021/12/24 05:55:26;;;;;;;11.32;7.22;;;;;;;7.76;86.07;99403.31;5034813;28;20520;-67
2021/12/24 05:57:53;;;;;;;11.57;7.35;;;;;;;7.87;85.54;99399.22;5045966;28;20068;-67
2021/12/24 06:00:19;;;;;;;9.65;6.80;;;;;;;7.76;85.83;99400.69;5038919;28;20135;-67
2021/12/24 06:02:45;;;;;;;12.02;7.43;;;;;;;7.56;86.85;99395.03;5046299;28;20041;-67
2021/12/24 06:05:12;;;;;;;14.77;7.70;;;;;;;7.49;87.38;99394.56;5044050;28;20120;-67
2021/12/24 06:07:39;;;;;;;13.95;7.95;;;;;;;7.66;86.68;99394.38;5035376;28;20077;-67
2021/12/24 06:10:06;;;;;;;10.02;7.22;;;;;;;7.70;86.79;99401.09;5037950;28;20057;-67
2021/12/24 06:12:33;;;;;;;12.35;8.23;;;;;;;7.59;86.56;99403.50;5046183;28;20485;-67
2021/12/24 06:15:03;;;;;;;15.43;8.20;;;;;;;7.58;86.77;99404.44;5045677;28;20076;-67
2021/12/24 06:17:31;;;;;;;15.10;8.52;;;;;;;7.58;86.91;99400.97;5045673;28;20052;-67
2021/12/24 06:19:57;;;;;;;18.20;10.43;;;;;;;7.63;86.91;99398.94;5034428;28;20048;-67
2021/12/24 06:22:23;;;;;;;16.77;9.65;;;;;;;7.54;87.23;99404.75;5045290;28;20048;-68
2021/12/24 06:24:51;;;;;;;19.60;10.45;;;;;;;7.57;87.08;99399.31;5040871;28;20552;-68
2021/12/24 06:27:17;;;;;;;20.13;11.05;;;;;;;7.42;87.93;99406.31;5050168;28;20064;-68
2021/12/24 06:29:44;;;;;;;19.70;11.40;;;;;;;7.49;87.59;99397.19;5049649;28;20134;-68
2021/12/24 06:32:10;;;;;;;22.60;12.65;;;;;;;7.49;88.00;99404.16;5049448;28;20049;-67
2021/12/24 06:34:36;;;;;;;17.90;10.85;;;;;;;7.47;87.71;99414.69;5048396;28;20080;-67
2021/12/24 06:37:03;;;;;;;21.40;10.48;;;;;;;7.48;87.64;99408.53;5048515;28;20053;-67
2021/12/24 06:39:30;;;;;;;24.67;12.27;;;;;;;7.64;87.26;99398.03;5030243;28;20153;-67
2021/12/24 06:41:57;;;;;;;20.58;11.90;;;;;;;7.53;87.54;99398.69;5050304;28;20126;-68
2021/12/24 06:44:24;;;;;;;22.25;12.23;;;;;;;7.74;86.57;99394.75;5048544;28;20078;-68
2021/12/24 06:46:50;;;;;;;21.60;12.02;;;;;;;7.58;86.91;99391.38;5048989;28;20045;-67
2021/12/24 06:49:17;;;;;;;21.08;11.40;;;;;;;7.65;87.14;99395.31;5030693;28;20498;-67
2021/12/24 06:51:43;;;;;;;22.10;12.25;;;;;;;7.84;86.61;99398.47;5043752;28;20068;-67
2021/12/24 06:54:11;;;;;;;21.60;12.40;;;;;;;7.86;86.26;99392.31;5032026;28;20092;-67
2021/12/24 06:56:37;;;;;;;23.25;12.38;;;;;;;8.01;85.81;99389.59;5050358;28;20045;-67
2021/12/24 06:59:05;;;;;;;22.20;12.05;;;;;;;7.86;86.41;99379.28;5049886;28;20072;-68
2021/12/24 07:01:32;;;;;;;19.83;11.13;;;;;;;7.91;85.66;99385.06;5051602;28;20550;-67
2021/12/24 07:03:58;;;;;;;22.67;11.70;;;;;;;8.03;85.57;99384.28;5055103;28;20049;-67
2021/12/24 07:06:24;;;;;;;19.90;10.05;;;;;;;8.13;85.41;99390.63;5051432;28;20052;-67
2021/12/24 07:08:51;;;;;;;19.08;9.88;;;;;;;7.91;85.89;99398.09;5044789;28;20072;-67
2021/12/24 07:11:17;;;;;;;15.20;9.10;;;;;;;7.58;87.21;99394.00;5050908;28;20466;-67
2021/12/24 07:13:43;;;;;;;17.27;9.15;;;;;;;7.61;87.69;99400.81;5048025;28;20044;-67
2021/12/24 07:16:11;;;;;;;16.48;9.68;;;;;;;7.73;87.37;99393.06;5050269;28;20065;-67
2021/12/24 07:18:38;;;;;;;16.88;8.90;;;;;;;7.73;87.64;99392.22;5035110;28;20100;-67
2021/12/24 07:21:05;;;;;;;17.52;9.23;;;;;;;7.88;86.70;99387.84;5028947;28;20053;-67
2021/12/24 07:23:31;;;;;;;16.48;8.18;;;;;;;7.86;86.61;99381.88;5036418;28;20072;-67
2021/12/24 07:25:58;;;;;;;15.98;8.38;;;;;;;8.01;86.45;99378.31;5041501;28;20077;-67
2021/12/24 07:28:24;;;;;;;18.45;9.35;;;;;;;7.85;87.11;99391.47;5046149;28;20118;-67
2021/12/24 07:30:51;;;;;;;18.65;9.55;;;;;;;8.02;86.63;99385.22;5048244;28;20586;-67
2021/12/24 07:33:19;;;;;;;15.82;9.05;;;;;;;8.01;86.61;99386.16;5051982;28;20114;-67
2021/12/24 07:35:46;;;;;;;18.60;10.65;;;;;;;7.90;87.31;99388.59;5049446;28;20037;-67
2021/12/24 07:38:14;;;;;;;18.33;11.38;;;;;;;7.76;87.61;99392.88;5027745;28;20049;-67
2021/12/24 07:40:40;;;;;;;18.58;10.18;;;;;;;7.78;87.91;99390.19;5026870;28;20044;-67
2021/12/24 07:43:07;;;;;;;16.85;10.00;;;;;;;7.85;88.18;99391.47;5033553;28;20045;-67
2021/12/24 07:45:33;;;;;;;17.02;10.25;;;;;;;7.83;87.87;99385.53;5045238;28;20048;-67
2021/12/24 07:48:10;;;;;;;21.95;10.57;;;;;;;7.75;88.13;99386.00;5038972;28;20049;-67
2021/12/24 07:53:23;;;;;;;17.67;9.68;;;;;;;7.75;88.75;99379.94;5050579;28;20048;-67
2021/12/24 07:55:50;;;;;;;23.48;11.32;;;;;;;7.80;88.65;99370.88;5031064;28;20042;-67
2021/12/24 07:58:18;;;;;;;22.20;11.48;;;;;;;7.83;89.14;99375.91;5047260;28;20072;-67
2021/12/24 08:00:46;;;;;;;19.98;10.35;;;;;;;7.78;89.56;99385.81;5050266;28;20049;-67
2021/12/24 08:03:12;;;;;;;19.73;11.18;;;;;;;7.86;89.48;99366.22;5052019;28;20170;-67
2021/12/24 08:05:42;;;;;;;17.77;9.70;;;;;;;7.79;90.11;99371.84;5050721;28;20493;-67
2021/12/24 08:08:10;;;;;;;20.63;10.07;;;;;;;7.93;89.42;99370.13;5048910;28;20107;-67
2021/12/24 08:10:37;;;;;;;17.50;9.95;;;;;;;7.84;90.57;99377.59;5030485;28;20556;-67
2021/12/24 08:13:04;;;;;;;17.17;9.50;;;;;;;8.14;90.15;99376.59;5033831;28;20046;-67
2021/12/24 08:15:31;;;;;;;19.33;10.70;;;;;;;8.32;89.04;99359.78;5049748;28;20569;-67
2021/12/24 08:17:58;;;;;;;16.05;8.93;;;;;;;8.48;88.08;99359.66;5048694;28;20048;-67
2021/12/24 08:20:26;;;;;;;14.73;9.02;;;;;;;8.53;88.29;99354.97;5050266;28;20074;-68
2021/12/24 08:22:55;;;;;;;12.60;8.30;;;;;;;8.46;89.04;99354.50;5049284;28;20059;-67
2021/12/24 08:25:23;;;;;;;14.40;8.07;;;;;;;8.56;88.79;99353.00;5044429;28;20068;-67
2021/12/24 08:27:50;;;;;;;15.43;8.77;;;;;;;8.50;88.99;99349.97;5047030;28;20118;-67
2021/12/24 08:30:17;;;;;;;15.55;8.48;;;;;;;8.43;89.07;99352.09;5049411;28;20126;-67
2021/12/24 08:32:43;;;;;;;13.57;8.23;;;;;;;8.52;88.73;99345.44;5049104;28;20122;-67
2021/12/24 08:35:12;;;;;;;12.68;7.30;;;;;;;8.66;88.82;99346.22;5053610;28;20106;-67
2021/12/24 08:37:39;;;;;;;11.98;7.65;;;;;;;8.48;89.04;99338.75;5045797;28;20615;-67
2021/12/24 08:40:08;;;;;;;13.35;7.13;;;;;;;8.63;89.10;99342.97;5041166;28;20053;-67
2021/12/24 08:42:34;;;;;;;10.35;6.47;;;;;;;8.72;88.51;99340.59;5045963;28;20064;-67
2021/12/24 08:45:01;;;;;;;9.75;6.75;;;;;;;8.70;88.78;99336.41;5048077;28;20057;-67
2021/12/24 08:47:27;;;;;;;9.75;6.18;;;;;;;8.71;88.70;99331.09;5047316;28;20045;-67
2021/12/24 08:49:53;;;;;;;9.25;5.25;;;;;;;8.73;88.93;99333.59;5045632;28;20239;-67
2021/12/24 08:52:20;;;;;;;7.80;5.60;;;;;;;8.84;89.02;99336.31;5045954;28;20501;-67
2021/12/24 08:54:46;;;;;;;8.88;5.25;;;;;;;8.73;88.93;99328.34;5046165;28;20111;-67
2021/12/24 08:57:14;;;;;;;8.40;5.07;;;;;;;8.86;89.13;99331.00;5046427;28;20073;-67
2021/12/24 08:59:40;;;;;;;7.68;5.43;;;;;;;8.71;89.49;99320.63;5046254;28;20091;-67
2021/12/24 09:02:06;;;;;;;9.68;5.60;;;;;;;8.75;89.30;99327.34;5044717;28;20477;-67
2021/12/24 09:04:33;;;;;;;7.75;4.88;;;;;;;8.72;88.92;99326.72;5046285;28;20126;-67
2021/12/24 09:06:59;;;;;;;8.57;5.45;;;;;;;8.81;88.68;99323.47;5046772;28;20041;-67
2021/12/24 09:09:27;;;;;;;7.70;5.88;;;;;;;8.91;87.96;99329.75;5036379;28;20049;-67
2021/12/24 09:11:54;;;;;;;7.30;4.95;;;;;;;8.95;87.81;99335.59;5038574;28;20067;-67
2021/12/24 09:14:23;;;;;;;8.35;5.43;;;;;;;8.95;88.04;99336.44;5047827;28;20496;-67
2021/12/24 09:16:50;;;;;;;6.72;5.15;;;;;;;8.93;87.56;99334.88;5045945;28;20111;-67
2021/12/24 09:19:22;;;;;;;5.97;4.57;;;;;;;8.84;88.24;99344.16;5043952;28;20479;-67
2021/12/24 09:21:49;;;;;;;7.15;5.28;;;;;;;9.19;86.90;99349.66;5045856;28;20090;-67
2021/12/24 09:24:18;;;;;;;8.02;5.22;;;;;;;9.04;87.54;99343.69;5031846;28;20044;-68
2021/12/24 09:26:45;;;;;;;10.02;5.03;;;;;;;9.07;87.53;99347.84;5044656;28;20055;-67
2021/12/24 09:29:11;;;;;;;8.05;4.72;;;;;;;8.93;87.91;99350.56;5046788;28;20048;-68
2021/12/24 09:31:39;;;;;;;6.97;4.82;;;;;;;8.93;87.65;99340.09;5037609;28;20051;-68
2021/12/24 09:34:05;;;;;;;6.80;5.10;;;;;;;8.90;88.15;99341.16;5043692;28;20045;-68
2021/12/24 09:36:32;;;;;;;7.32;5.13;;;;;;;8.94;87.98;99344.41;5039556;28;20069;-67
2021/12/24 09:39:02;;;;;;;6.63;5.00;;;;;;;9.05;87.64;99339.28;5046624;28;20122;-67
2021/12/24 09:41:28;;;;;;;9.80;4.82;;;;;;;8.98;87.77;99338.03;5041402;28;20045;-67
2021/12/24 09:43:57;;;;;;;6.63;4.70;;;;;;;8.80;88.41;99337.47;5044480;28;20114;-67
2021/12/24 09:46:25;;;;;;;10.02;4.70;;;;;;;8.93;88.07;99327.03;5045342;28;20711;-67
2021/12/24 09:48:53;;;;;;;8.27;5.38;;;;;;;8.98;87.66;99330.19;5045010;28;20088;-66
2021/12/24 09:51:20;;;;;;;9.98;5.22;;;;;;;9.04;87.60;99337.59;5037690;28;20065;-66
2021/12/24 09:53:47;;;;;;;7.72;5.40;;;;;;;8.98;87.45;99332.81;5029354;28;20464;-67
2021/12/24 09:56:13;;;;;;;11.43;5.20;;;;;;;9.09;87.36;99340.75;5045616;28;20551;-67
2021/12/24 09:58:39;;;;;;;8.02;5.22;;;;;;;9.34;86.15;99337.31;5048072;28;20073;-66
2021/12/24 10:01:06;;;;;;;7.45;5.22;;;;;;;9.13;87.14;99334.34;5052272;28;20072;-66
2021/12/24 10:03:34;;;;;;;8.40;5.32;;;;;;;8.99;87.43;99331.84;5052083;28;20079;-67
2021/12/24 10:06:03;;;;;;;7.03;4.78;;;;;;;9.03;87.89;99323.69;5052042;28;20735;-67
2021/12/24 10:08:31;;;;;;;9.90;5.57;;;;;;;9.34;86.33;99325.06;5033441;28;20041;-67
2021/12/24 10:11:02;;;;;;;11.13;5.63;;;;;;;9.32;86.29;99324.31;5042291;28;20146;-67
2021/12/24 10:13:34;;;;;;;9.95;6.03;;;;;;;9.39;86.21;99322.09;5047525;28;20056;-67
2021/12/24 10:16:03;;;;;;;10.18;6.38;;;;;;;9.44;85.92;99333.09;5052526;28;20057;-67
2021/12/24 10:18:36;;;;;;;14.48;7.10;;;;;;;9.40;86.12;99329.84;5049517;28;20041;-67
2021/12/24 10:21:07;;;;;;;14.52;6.13;;;;;;;9.40;85.92;99323.78;5050153;28;20041;-67
2021/12/24 10:23:48;;;;;;;11.80;6.95;;;;;;;9.29;86.82;99333.22;5046153;28;20072;-67
2021/12/24 10:26:18;;;;;;;15.57;7.68;;;;;;;9.42;86.26;99329.78;5051396;28;20134;-67
2021/12/24 10:29:04;;;;;;;11.93;7.55;;;;;;;9.46;85.46;99311.13;5050588;28;20098;-67
2021/12/24 10:31:33;;;;;;;11.10;8.35;;;;;;;9.34;85.80;99327.69;5051518;28;20098;-66
2021/12/24 10:34:12;;;;;;;14.30;8.10;;;;;;;9.44;85.78;99320.88;5050911;28;20555;-68
2021/12/24 10:37:02;;;;;;;13.82;8.43;;;;;;;9.52;85.60;99321.16;5050887;28;20033;-68
2021/12/24 10:39:31;;;;;;;13.75;7.35;;;;;;;9.60;85.23;99321.47;5049989;28;20067;-68
2021/12/24 10:42:00;;;;;;;15.88;7.40;;;;;;;9.75;84.20;99311.72;5050756;28;20095;-68
2021/12/24 10:44:29;;;;;;;12.77;7.57;;;;;;;9.82;83.69;99299.00;5050896;28;20493;-68
2021/12/24 10:47:02;;;;;;;10.10;6.15;;;;;;;9.68;83.42;99316.50;5050869;28;20064;-68
2021/12/24 10:49:49;;;;;;;14.32;7.00;;;;;;;9.59;83.55;99311.94;5035721;28;20049;-68
2021/12/24 10:52:32;;;;;;;11.35;7.22;;;;;;;9.58;84.20;99307.66;5048110;28;20122;-68
2021/12/24 10:55:00;;;;;;;14.43;8.13;;;;;;;9.62;84.44;99313.50;5049557;28;20124;-67
2021/12/24 10:57:29;;;;;;;12.13;7.10;;;;;;;9.48;84.53;99306.63;5048123;28;20095;-68
2021/12/24 10:59:58;;;;;;;15.50;8.07;;;;;;;9.49;84.32;99303.06;5050667;28;20052;-67
2021/12/24 11:02:29;;;;;;;17.20;9.50;;;;;;;9.54;84.30;99295.72;5049433;28;20734;-68
2021/12/24 11:04:56;;;;;;;15.20;9.20;;;;;;;9.49;84.06;99303.06;5050000;28;20041;-68
2021/12/24 11:07:38;;;;;;;21.90;8.55;;;;;;;9.38;85.08;99308.22;5036218;28;20111;-67
2021/12/24 11:10:12;;;;;;;20.80;10.40;;;;;;;9.52;84.68;99299.41;5049214;28;20095;-68
2021/12/24 11:12:42;;;;;;;22.52;10.15;;;;;;;9.66;84.19;99305.34;5044070;28;20040;-68
2021/12/24 11:15:19;;;;;;;18.45;9.07;;;;;;;9.46;84.61;99302.44;5048709;28;20076;-68
2021/12/24 11:17:46;;;;;;;42.45;20.35;;;;;;;9.76;83.19;99301.13;5036550;28;20122;-68
2021/12/24 11:20:13;;;;;;;16.05;9.48;;;;;;;9.67;82.33;99306.19;5049376;28;20045;-68
2021/12/24 11:22:56;;;;;;;40.85;18.58;;;;;;;9.63;82.85;99316.03;5048137;28;20045;-68
2021/12/24 11:25:24;;;;;;;19.05;10.63;;;;;;;9.84;82.05;99308.41;5048877;28;20103;-68
2021/12/24 11:27:51;;;;;;;15.30;8.52;;;;;;;9.89;81.40;99306.31;5039350;28;20126;-67
2021/12/24 11:30:18;;;;;;;11.95;8.10;;;;;;;9.98;81.18;99310.88;5046182;28;20456;-67
2021/12/24 11:32:46;;;;;;;14.25;7.47;;;;;;;10.03;79.62;99302.69;5039049;28;20120;-67
2021/12/24 11:35:13;;;;;;;11.50;6.93;;;;;;;9.87;80.20;99302.13;5046201;28;20049;-67
2021/12/24 11:37:42;;;;;;;12.00;5.93;;;;;;;9.92;79.91;99308.72;5047435;28;20621;-67
2021/12/24 11:40:11;;;;;;;7.38;4.97;;;;;;;10.05;79.66;99311.31;5045646;28;20059;-66
2021/12/24 11:42:40;;;;;;;13.07;5.53;;;;;;;10.08;79.15;99298.81;5043839;28;20080;-66
2021/12/24 11:45:07;;;;;;;9.20;4.63;;;;;;;9.99;78.93;99296.00;5046418;28;20103;-66
2021/12/24 11:47:34;;;;;;;11.60;4.07;;;;;;;9.90;79.45;99307.16;5041513;28;20091;-66
2021/12/24 11:50:01;;;;;;;8.27;5.60;;;;;;;10.12;79.01;99317.78;5043790;28;20052;-66
2021/12/24 11:52:28;;;;;;;7.82;4.63;;;;;;;9.98;79.93;99307.44;5009498;28;988354;-66
2021/12/24 11:54:56;;;;;;;8.05;3.72;;;;;;;9.98;79.69;99297.78;5034944;28;20103;-66
2021/12/24 11:57:24;;;;;;;7.93;4.82;;;;;;;10.15;78.75;99297.47;5029076;28;20053;-66
2021/12/24 11:59:52;;;;;;;8.13;4.85;;;;;;;10.21;78.93;99309.25;5047913;28;20072;-66
2021/12/24 12:02:36;;;;;;;36.22;17.73;;;;;;;10.30;78.11;99326.94;5046237;28;20417;-66
2021/12/24 12:05:31;;;;;;;5.60;3.97;;;;;;;10.72;77.05;99339.50;5046796;28;20049;-66
2021/12/24 12:08:38;;;;;;;1.98;1.70;;;;;;;10.23;77.16;99344.06;5021463;28;20049;-66
2021/12/24 12:11:07;;;;;;;1.75;1.33;;;;;;;9.04;80.62;99382.06;4960186;28;20055;-68
2021/12/24 12:13:47;;;;;;;4.90;2.35;;;;;;;8.62;82.77;99368.25;5034670;28;20456;-68
2021/12/24 12:16:16;;;;;;;4.97;2.85;;;;;;;8.21;81.48;99378.72;5040845;28;20483;-68
2021/12/24 12:18:49;;;;;;;14.23;5.22;;;;;;;8.02;82.21;99388.66;5047076;28;20049;-67
2021/12/24 12:21:33;;;;;;;5.57;2.70;;;;;;;7.71;82.89;99409.75;5046874;28;20052;-67
2021/12/24 12:27:02;;;;;;;2.90;2.03;;;;;;;7.56;82.86;99400.25;5026951;28;20060;-68
2021/12/24 12:29:43;;;;;;;1.90;1.52;;;;;;;7.38;82.89;99407.41;5037900;28;20072;-68
2021/12/24 12:32:39;;;;;;;2.88;1.38;;;;;;;7.22;83.91;99401.44;5046713;28;20049;-67
2021/12/24 12:35:06;;;;;;;1.52;1.35;;;;;;;7.25;84.28;99419.50;5047909;28;20045;-67
2021/12/24 12:37:43;;;;;;;2.15;1.90;;;;;;;7.49;83.21;99414.59;5047740;28;20045;-67
2021/12/24 12:40:31;;;;;;;2.05;1.55;;;;;;;7.38;83.84;99425.66;5046073;28;20052;-67
2021/12/24 12:43:10;;;;;;;1.83;1.73;;;;;;;7.40;83.72;99436.84;5039995;28;20691;-67
2021/12/24 12:45:56;;;;;;;1.08;1.08;;;;;;;7.17;84.22;99453.81;5046952;28;20497;-68
2021/12/24 12:48:26;;;;;;;0.95;0.95;;;;;;;7.20;83.61;99455.44;5045620;28;20059;-68
2021/12/24 12:50:55;;;;;;;1.40;1.20;;;;;;;7.23;83.52;99445.66;5047417;28;20227;-68
2021/12/24 12:53:27;;;;;;;1.38;1.30;;;;;;;7.28;83.09;99454.03;5046361;28;20072;-67
2021/12/24 12:56:11;;;;;;;0.98;0.98;;;;;;;7.30;83.10;99467.00;5034514;28;20553;-67
2021/12/24 12:58:38;;;;;;;0.95;0.75;;;;;;;6.92;82.99;99470.97;5026648;28;20119;-67
2021/12/24 13:01:09;;;;;;;0.80;0.80;;;;;;;6.68;83.19;99476.66;5039172;28;20072;-68
2021/12/24 13:04:11;;;;;;;0.88;0.85;;;;;;;6.59;84.49;99484.97;5046395;28;20045;-67